Metar z połowy godziny Komunikat METAR ze strony awiacja.imgw.pl Metar G00 EPSY METAR EPSY 230330Z 16009KT 130V190 9999 SCT028 OVC034 07/04 Q0993=